Time;durP1;ratioP1;P1;durP2;ratioP2;P2;SDS_P1;SDS_P2;PMS_P1;PMS_P2;Temp;Humidity;BMP_temperature;BMP_pressure;BME280_temperature;BME280_humidity;BME280_pressure;Samples;Min_cycle;Max_cycle;Signal;HPM_P1;HPM_P2
2021/01/03 00:02:12;;;;;;;2.23;1.93;;;2.70;98.00;;;;;;5068994;28;20906;-66
2021/01/03 00:04:39;;;;;;;2.17;1.20;;;2.80;98.00;;;;;;5070057;28;20804;-66
2021/01/03 00:07:06;;;;;;;1.20;1.07;;;2.80;98.00;;;;;;5069071;28;20460;-66
2021/01/03 00:09:33;;;;;;;1.90;1.60;;;3.00;98.00;;;;;;5071105;28;20520;-66
2021/01/03 00:12:01;;;;;;;1.20;1.00;;;3.00;98.00;;;;;;5069480;28;20459;-66
2021/01/03 00:14:30;;;;;;;1.67;1.40;;;3.00;98.00;;;;;;5069979;28;20464;-66
2021/01/03 00:17:05;;;;;;;2.23;1.87;;;3.00;98.00;;;;;;5071017;28;20508;-66
2021/01/03 00:19:32;;;;;;;2.77;2.03;;;3.00;98.00;;;;;;5071155;28;20468;-66
2021/01/03 00:22:01;;;;;;;1.20;1.20;;;3.00;98.00;;;;;;5069833;28;20460;-67
2021/01/03 00:24:28;;;;;;;2.00;1.30;;;3.10;98.00;;;;;;5069378;28;20811;-66
2021/01/03 00:26:55;;;;;;;7.27;1.93;;;2.90;98.00;;;;;;5071005;28;20573;-66
2021/01/03 00:29:22;;;;;;;1.50;1.27;;;2.90;98.00;;;;;;5069273;28;20581;-66
2021/01/03 00:31:50;;;;;;;1.20;1.00;;;2.90;98.00;;;;;;5071169;28;20789;-65
2021/01/03 00:34:18;;;;;;;1.20;1.03;;;2.90;98.00;;;;;;5069184;28;20967;-67
2021/01/03 00:36:47;;;;;;;2.40;2.23;;;2.80;98.00;;;;;;5071365;28;20449;-66
2021/01/03 00:39:13;;;;;;;1.93;1.60;;;2.80;98.00;;;;;;5069643;28;20550;-66
2021/01/03 00:41:40;;;;;;;2.30;1.50;;;2.70;98.00;;;;;;5071459;28;20452;-67
2021/01/03 00:44:07;;;;;;;1.30;1.23;;;2.70;98.00;;;;;;5068944;28;20459;-65
2021/01/03 00:46:34;;;;;;;1.20;1.03;;;2.70;98.00;;;;;;5071048;28;20835;-65
2021/01/03 00:49:01;;;;;;;2.40;2.00;;;2.80;98.00;;;;;;5068666;28;20465;-65
2021/01/03 00:51:28;;;;;;;4.90;2.40;;;2.80;98.00;;;;;;5070968;28;20460;-67
2021/01/03 00:53:54;;;;;;;1.60;1.43;;;2.80;98.00;;;;;;5069135;28;20448;-66
2021/01/03 00:56:23;;;;;;;3.57;1.73;;;2.80;98.00;;;;;;5074521;28;20465;-65
2021/01/03 00:58:50;;;;;;;1.67;1.47;;;2.70;98.00;;;;;;5072382;28;20468;-66
2021/01/03 01:01:16;;;;;;;1.40;1.30;;;2.70;98.00;;;;;;5073927;28;20452;-66
2021/01/03 01:03:44;;;;;;;1.20;1.20;;;2.70;98.00;;;;;;5072019;28;20461;-66
2021/01/03 01:06:10;;;;;;;1.20;1.10;;;2.70;98.00;;;;;;5074352;28;20455;-66
2021/01/03 01:08:37;;;;;;;1.20;1.00;;;2.70;98.00;;;;;;5072031;28;20548;-66
2021/01/03 01:11:05;;;;;;;3.10;1.37;;;2.70;98.00;;;;;;5074071;28;20492;-65
2021/01/03 01:13:32;;;;;;;1.40;1.20;;;2.70;98.00;;;;;;5071889;28;20460;-65
2021/01/03 01:15:59;;;;;;;1.50;1.47;;;2.70;98.00;;;;;;5073966;28;20457;-67
2021/01/03 01:18:25;;;;;;;1.73;1.30;;;2.70;98.00;;;;;;5071928;28;21069;-66
2021/01/03 01:20:53;;;;;;;1.30;1.00;;;2.70;98.00;;;;;;5074041;28;20463;-65
2021/01/03 01:23:20;;;;;;;3.30;1.53;;;2.80;98.00;;;;;;5071898;28;20471;-65
2021/01/03 01:25:46;;;;;;;1.20;1.00;;;2.90;98.00;;;;;;5072644;28;20460;-66
2021/01/03 01:28:13;;;;;;;1.30;1.10;;;3.00;98.00;;;;;;5071773;28;20485;-67
2021/01/03 01:30:40;;;;;;;1.63;1.27;;;3.00;98.00;;;;;;5073778;28;20504;-66
2021/01/03 01:33:07;;;;;;;1.20;1.10;;;3.00;98.00;;;;;;5071720;28;20516;-66
2021/01/03 01:35:35;;;;;;;1.20;1.00;;;2.80;98.00;;;;;;5072399;28;20957;-67
2021/01/03 01:38:03;;;;;;;1.20;1.13;;;2.80;98.00;;;;;;5071639;28;20552;-67
2021/01/03 01:40:32;;;;;;;2.17;1.83;;;2.70;98.00;;;;;;5073684;28;20452;-65
2021/01/03 01:42:59;;;;;;;1.10;0.97;;;2.80;98.00;;;;;;5071694;28;20493;-66
2021/01/03 01:45:30;;;;;;;1.53;1.40;;;2.70;98.00;;;;;;5072280;28;20467;-66
2021/01/03 01:48:01;;;;;;;1.30;1.00;;;2.60;98.00;;;;;;5071346;28;20448;-66
2021/01/03 01:50:35;;;;;;;1.13;0.90;;;2.60;98.00;;;;;;5073465;28;20488;-65
2021/01/03 01:53:05;;;;;;;1.10;0.97;;;2.60;98.00;;;;;;5071551;28;21025;-67
2021/01/03 01:55:35;;;;;;;1.17;1.00;;;2.60;98.00;;;;;;5073693;28;20475;-66
2021/01/03 01:58:08;;;;;;;2.30;1.30;;;2.60;98.00;;;;;;5071540;28;20473;-67
2021/01/03 02:00:36;;;;;;;1.20;1.00;;;2.60;98.00;;;;;;5073430;28;20449;-66
2021/01/03 02:03:09;;;;;;;1.20;1.00;;;2.50;98.00;;;;;;5071320;28;20455;-67
2021/01/03 02:05:39;;;;;;;1.90;1.80;;;2.50;98.00;;;;;;5073280;28;20455;-66
2021/01/03 02:08:13;;;;;;;1.30;1.27;;;2.40;98.00;;;;;;5071429;28;20484;-65
2021/01/03 02:10:42;;;;;;;1.10;0.90;;;2.40;98.00;;;;;;5071784;28;20546;-67
2021/01/03 02:13:14;;;;;;;1.30;1.30;;;2.40;98.00;;;;;;5070983;28;20449;-65
2021/01/03 02:15:41;;;;;;;1.23;1.10;;;2.50;98.00;;;;;;5073043;28;20463;-66
2021/01/03 02:18:10;;;;;;;1.90;1.40;;;2.50;98.00;;;;;;5070894;28;20561;-66
2021/01/03 02:20:51;;;;;;;1.77;1.40;;;2.40;98.00;;;;;;5072912;28;20464;-66
2021/01/03 02:23:29;;;;;;;3.30;1.93;;;2.40;98.00;;;;;;5070879;28;20452;-65
2021/01/03 02:25:58;;;;;;;1.67;1.40;;;2.30;98.00;;;;;;5072873;28;20468;-65
2021/01/03 02:28:24;;;;;;;1.33;1.27;;;2.40;98.00;;;;;;5070489;28;20867;-65
2021/01/03 02:30:56;;;;;;;1.40;1.33;;;2.40;98.00;;;;;;5072554;28;21193;-66
2021/01/03 02:33:25;;;;;;;1.17;1.07;;;2.30;98.00;;;;;;5070411;28;20460;-66
2021/01/03 02:35:58;;;;;;;1.43;1.20;;;2.30;98.00;;;;;;5071382;28;20463;-66
2021/01/03 02:38:28;;;;;;;1.60;1.20;;;2.30;98.00;;;;;;5070494;28;20510;-65
2021/01/03 02:40:55;;;;;;;1.10;1.00;;;2.20;98.00;;;;;;5071148;28;20456;-65
2021/01/03 02:43:22;;;;;;;1.30;1.30;;;2.10;98.00;;;;;;5070233;28;20530;-65
2021/01/03 02:45:49;;;;;;;2.33;2.03;;;2.10;98.00;;;;;;5071048;28;20491;-65
2021/01/03 02:48:19;;;;;;;1.20;1.10;;;2.10;98.00;;;;;;5070240;28;20864;-66
2021/01/03 02:50:46;;;;;;;1.40;1.30;;;2.10;98.00;;;;;;5072247;28;20491;-66
2021/01/03 02:53:14;;;;;;;4.73;1.77;;;2.10;98.00;;;;;;5070212;28;20589;-65
2021/01/03 02:55:40;;;;;;;1.10;1.00;;;2.20;98.00;;;;;;5071858;28;20939;-66
2021/01/03 02:58:07;;;;;;;1.20;1.17;;;2.20;98.00;;;;;;5069456;28;20478;-66
2021/01/03 03:00:36;;;;;;;1.20;1.10;;;2.20;98.00;;;;;;5071959;28;21055;-66
2021/01/03 03:03:05;;;;;;;1.50;1.20;;;2.30;98.00;;;;;;5069970;28;20445;-66
2021/01/03 03:05:31;;;;;;;1.20;1.00;;;2.20;98.00;;;;;;5072073;28;20483;-65
2021/01/03 03:07:58;;;;;;;1.37;1.17;;;2.30;98.00;;;;;;5069798;28;20460;-65
2021/01/03 03:10:25;;;;;;;1.10;1.00;;;2.20;98.00;;;;;;5070323;28;20489;-66
2021/01/03 03:12:53;;;;;;;2.43;1.40;;;2.20;98.00;;;;;;5069704;28;20509;-65
2021/01/03 03:15:22;;;;;;;1.10;0.93;;;2.20;98.00;;;;;;5072035;28;20456;-65
2021/01/03 03:17:50;;;;;;;3.87;1.73;;;2.20;98.00;;;;;;5069391;28;20453;-66
2021/01/03 03:20:18;;;;;;;1.20;1.10;;;2.20;98.00;;;;;;5071786;28;20460;-65
2021/01/03 03:22:45;;;;;;;1.10;1.00;;;2.20;98.00;;;;;;5069540;28;20468;-66
2021/01/03 03:25:13;;;;;;;1.70;1.47;;;2.20;98.00;;;;;;5071734;28;20453;-65
2021/01/03 03:27:40;;;;;;;1.10;1.00;;;2.30;98.00;;;;;;5069756;28;20661;-66
2021/01/03 03:30:09;;;;;;;1.20;1.10;;;2.20;98.00;;;;;;5070397;28;20492;-66
2021/01/03 03:32:36;;;;;;;1.10;0.90;;;2.20;98.00;;;;;;5069381;28;20536;-66
2021/01/03 03:35:05;;;;;;;1.40;1.20;;;2.10;98.00;;;;;;5070381;28;20943;-66
2021/01/03 03:37:32;;;;;;;15.23;1.97;;;2.20;98.00;;;;;;5069427;28;20930;-65
2021/01/03 03:39:58;;;;;;;1.20;1.00;;;2.20;98.00;;;;;;5071300;28;20459;-65
2021/01/03 03:42:25;;;;;;;1.30;1.20;;;2.30;98.00;;;;;;5069558;28;20452;-66
2021/01/03 03:44:52;;;;;;;1.20;1.00;;;2.20;98.00;;;;;;5071581;28;20559;-66
2021/01/03 03:47:18;;;;;;;1.20;1.00;;;2.20;98.00;;;;;;5071290;28;20467;-66
2021/01/03 03:49:45;;;;;;;2.27;2.07;;;2.20;98.00;;;;;;5067843;28;20488;-65
2021/01/03 03:52:12;;;;;;;1.20;1.10;;;2.10;98.00;;;;;;5071486;28;20463;-66
2021/01/03 03:54:42;;;;;;;1.20;1.10;;;2.20;98.00;;;;;;5068904;28;20951;-66
2021/01/03 03:57:09;;;;;;;2.93;2.73;;;2.20;98.00;;;;;;5071353;28;20467;-65
2021/01/03 03:59:38;;;;;;;1.10;1.03;;;2.20;98.00;;;;;;5068703;28;20472;-66
2021/01/03 04:02:06;;;;;;;1.10;1.00;;;2.20;98.00;;;;;;5070554;28;20631;-65
2021/01/03 04:04:33;;;;;;;2.50;2.30;;;2.20;98.00;;;;;;5068435;28;20456;-65
2021/01/03 04:07:01;;;;;;;1.10;1.00;;;2.10;98.00;;;;;;5070816;28;20467;-65
2021/01/03 04:09:28;;;;;;;2.80;1.47;;;2.10;98.00;;;;;;5068697;28;21025;-64
2021/01/03 04:11:55;;;;;;;1.97;1.20;;;2.10;98.00;;;;;;5071111;28;20490;-65
2021/01/03 04:14:24;;;;;;;1.20;1.17;;;2.10;98.00;;;;;;5068669;28;20479;-66
2021/01/03 04:16:52;;;;;;;3.00;1.93;;;2.10;98.00;;;;;;5071526;28;20464;-65
2021/01/03 04:19:19;;;;;;;1.10;0.90;;;2.00;98.00;;;;;;5067792;28;20460;-65
2021/01/03 04:21:52;;;;;;;1.67;1.30;;;1.80;98.00;;;;;;5071090;28;20972;-66
2021/01/03 04:24:19;;;;;;;1.10;1.00;;;1.80;98.00;;;;;;5068704;28;20537;-65
2021/01/03 04:26:51;;;;;;;1.20;1.13;;;1.80;98.00;;;;;;5071068;28;21201;-66
2021/01/03 04:29:18;;;;;;;1.10;1.00;;;1.80;98.00;;;;;;5069926;28;20509;-65
2021/01/03 04:31:45;;;;;;;1.10;0.97;;;1.60;98.00;;;;;;5075026;28;20487;-65
2021/01/03 04:34:12;;;;;;;1.70;1.50;;;1.70;98.00;;;;;;5071459;28;20475;-65
2021/01/03 04:36:40;;;;;;;1.63;1.23;;;1.70;98.00;;;;;;5074801;28;20459;-64
2021/01/03 04:39:07;;;;;;;1.10;0.90;;;1.70;98.00;;;;;;5072379;28;20460;-64
2021/01/03 04:41:39;;;;;;;1.40;1.40;;;1.80;98.00;;;;;;5074683;28;20455;-65
2021/01/03 04:44:14;;;;;;;1.30;1.30;;;1.90;98.00;;;;;;5072161;28;20456;-65
2021/01/03 04:46:43;;;;;;;1.53;1.20;;;2.00;98.00;;;;;;5074269;28;20458;-64
2021/01/03 04:49:23;;;;;;;1.10;1.00;;;2.00;98.00;;;;;;5072081;28;20456;-64
2021/01/03 04:52:30;;;;;;;1.27;1.10;;;2.00;98.00;;;;;;5074354;28;21208;-66
2021/01/03 04:55:11;;;;;;;1.20;1.10;;;2.00;98.00;;;;;;5042853;28;20990;-64
2021/01/03 04:57:47;;;;;;;1.70;1.60;;;1.90;98.00;;;;;;5072039;28;20459;-65
2021/01/03 05:00:18;;;;;;;3.90;3.23;;;1.70;98.00;;;;;;5074175;28;21222;-64
2021/01/03 05:03:22;;;;;;;1.43;1.40;;;1.70;98.00;;;;;;5072295;28;20462;-66
2021/01/03 05:05:50;;;;;;;1.10;1.00;;;1.70;98.00;;;;;;5048382;28;20463;-64
2021/01/03 05:08:35;;;;;;;2.40;1.40;;;1.60;98.00;;;;;;5072315;28;20819;-65
2021/01/03 05:11:06;;;;;;;2.10;1.43;;;1.70;98.00;;;;;;5072886;28;20479;-65
2021/01/03 05:13:54;;;;;;;2.33;1.93;;;1.70;98.00;;;;;;5072236;28;20542;-67
2021/01/03 05:16:22;;;;;;;1.40;1.30;;;1.70;98.00;;;;;;5074501;28;20478;-66
2021/01/03 05:18:48;;;;;;;1.10;0.93;;;1.60;98.00;;;;;;5072079;28;20517;-65
2021/01/03 05:21:15;;;;;;;1.10;0.93;;;1.70;98.00;;;;;;5074244;28;20521;-64
2021/01/03 05:24:01;;;;;;;1.70;1.60;;;1.80;98.00;;;;;;5072179;28;20456;-64
2021/01/03 05:26:31;;;;;;;1.50;1.40;;;1.90;98.00;;;;;;5074246;28;20460;-65
2021/01/03 05:28:58;;;;;;;1.17;1.07;;;1.80;98.00;;;;;;5072044;28;20503;-65
2021/01/03 05:31:26;;;;;;;1.10;1.07;;;1.80;98.00;;;;;;5073913;28;20487;-65
2021/01/03 05:33:55;;;;;;;3.17;2.10;;;1.70;98.00;;;;;;5071934;28;20868;-66
2021/01/03 05:36:32;;;;;;;2.13;1.37;;;1.70;98.00;;;;;;5073803;28;20526;-66
2021/01/03 05:39:03;;;;;;;1.50;1.30;;;1.70;98.00;;;;;;5071663;28;20471;-64
2021/01/03 05:41:53;;;;;;;1.10;1.00;;;1.70;98.00;;;;;;5073222;28;20463;-65
2021/01/03 05:44:24;;;;;;;1.10;0.90;;;1.60;98.00;;;;;;5070005;28;20472;-67
2021/01/03 05:47:01;;;;;;;1.93;1.80;;;1.70;98.00;;;;;;5073621;28;20509;-65
2021/01/03 05:49:29;;;;;;;2.40;1.43;;;1.70;98.00;;;;;;5071192;28;20464;-65
2021/01/03 05:52:08;;;;;;;1.10;0.90;;;1.70;98.00;;;;;;5073476;28;20464;-65
2021/01/03 05:54:37;;;;;;;1.10;0.90;;;1.60;98.00;;;;;;5071206;28;20463;-66
2021/01/03 05:57:07;;;;;;;1.67;1.20;;;1.60;98.00;;;;;;5073391;28;20937;-66
2021/01/03 05:59:37;;;;;;;1.73;1.73;;;1.60;98.00;;;;;;5071193;28;20477;-66
2021/01/03 06:02:09;;;;;;;1.97;1.53;;;1.60;98.00;;;;;;5073175;28;20460;-65
2021/01/03 06:04:36;;;;;;;1.20;1.10;;;1.70;98.00;;;;;;5071226;28;20513;-65
2021/01/03 06:07:19;;;;;;;1.40;1.30;;;1.70;98.00;;;;;;5071636;28;20466;-66
2021/01/03 06:09:46;;;;;;;1.37;1.37;;;1.80;98.00;;;;;;5069683;28;20464;-66
2021/01/03 06:12:19;;;;;;;1.10;1.00;;;1.80;98.00;;;;;;5073226;28;20460;-64
2021/01/03 06:14:48;;;;;;;1.20;1.20;;;1.80;98.00;;;;;;5071008;28;20460;-64
2021/01/03 06:17:34;;;;;;;1.10;1.00;;;1.80;98.00;;;;;;5072910;28;20472;-66
2021/01/03 06:20:13;;;;;;;1.10;1.03;;;1.70;98.00;;;;;;5070773;28;20546;-65
2021/01/03 06:22:47;;;;;;;1.10;1.00;;;1.80;98.00;;;;;;5070949;28;20467;-66
2021/01/03 06:25:41;;;;;;;1.10;1.00;;;1.70;98.00;;;;;;5071588;28;20463;-64
2021/01/03 06:28:13;;;;;;;1.30;1.20;;;1.60;98.00;;;;;;5070820;28;20518;-66
2021/01/03 06:30:43;;;;;;;1.10;1.00;;;1.60;98.00;;;;;;5073062;28;20541;-65
2021/01/03 06:33:42;;;;;;;1.30;1.10;;;1.80;98.00;;;;;;5070636;28;20464;-64
2021/01/03 06:36:15;;;;;;;1.40;1.30;;;1.70;98.00;;;;;;5073126;28;20475;-65
2021/01/03 06:39:00;;;;;;;1.60;1.20;;;1.60;98.00;;;;;;5070703;28;20467;-66
2021/01/03 06:41:45;;;;;;;1.10;1.00;;;1.60;98.00;;;;;;5071757;28;20592;-64
2021/01/03 06:44:44;;;;;;;1.10;1.00;;;1.70;98.00;;;;;;5070716;28;20498;-65
2021/01/03 06:47:39;;;;;;;1.10;0.90;;;1.70;98.00;;;;;;5072580;28;20463;-65
2021/01/03 06:50:38;;;;;;;1.57;1.23;;;1.70;98.00;;;;;;5069437;28;20488;-65
2021/01/03 06:53:29;;;;;;;2.50;1.57;;;1.80;98.00;;;;;;5069617;28;20478;-64
2021/01/03 06:56:44;;;;;;;1.10;1.00;;;1.80;98.00;;;;;;5069696;28;20468;-66
2021/01/03 06:59:43;;;;;;;1.33;1.27;;;1.80;98.00;;;;;;5069939;28;20518;-65
2021/01/03 07:02:10;;;;;;;1.10;1.00;;;1.90;98.00;;;;;;5063111;28;20459;-65
2021/01/03 07:04:39;;;;;;;1.10;1.00;;;1.90;98.00;;;;;;5069903;28;20475;-65
2021/01/03 07:07:16;;;;;;;1.70;1.27;;;1.80;98.00;;;;;;5071867;28;20468;-64
2021/01/03 07:09:59;;;;;;;1.80;1.70;;;1.90;98.00;;;;;;5069842;28;20463;-66
2021/01/03 07:12:35;;;;;;;1.30;1.17;;;1.90;98.00;;;;;;5071992;28;20457;-65
2021/01/03 07:15:08;;;;;;;1.10;1.10;;;1.90;98.00;;;;;;5069872;28;20466;-65
2021/01/03 07:18:09;;;;;;;1.10;1.00;;;1.80;98.00;;;;;;5071765;28;20462;-65
2021/01/03 07:20:47;;;;;;;1.30;1.20;;;1.90;98.00;;;;;;5038615;28;21000;-65
2021/01/03 07:23:18;;;;;;;1.57;1.27;;;1.90;98.00;;;;;;5069702;28;20949;-65
2021/01/03 07:25:58;;;;;;;1.20;1.10;;;1.90;98.00;;;;;;5071687;28;20459;-65
2021/01/03 07:28:28;;;;;;;1.10;1.00;;;1.90;98.00;;;;;;5069774;28;20469;-64
2021/01/03 07:31:05;;;;;;;1.30;1.20;;;1.90;98.00;;;;;;5071380;28;20498;-65
2021/01/03 07:33:48;;;;;;;1.10;0.90;;;1.90;98.00;;;;;;5069454;28;20497;-64
2021/01/03 07:36:26;;;;;;;1.40;1.30;;;1.90;98.00;;;;;;5071655;28;20501;-64
2021/01/03 07:39:25;;;;;;;2.30;2.10;;;1.90;98.00;;;;;;5069522;28;20470;-66
2021/01/03 07:42:28;;;;;;;1.10;1.00;;;1.90;98.00;;;;;;5069439;28;20460;-65
2021/01/03 07:44:58;;;;;;;1.10;1.00;;;1.80;98.00;;;;;;5063904;28;20783;-64
2021/01/03 07:47:36;;;;;;;1.30;1.20;;;1.80;98.00;;;;;;5071491;28;20453;-64
2021/01/03 07:50:26;;;;;;;1.67;1.50;;;1.90;98.00;;;;;;5069341;28;20575;-64
2021/01/03 07:52:54;;;;;;;1.97;1.60;;;1.90;98.00;;;;;;5059720;28;20478;-66
2021/01/03 07:55:30;;;;;;;2.37;1.40;;;2.10;98.00;;;;;;5071259;28;20451;-65
2021/01/03 07:58:00;;;;;;;1.50;1.30;;;2.20;98.00;;;;;;5069404;28;20471;-67
2021/01/03 08:00:29;;;;;;;1.20;1.10;;;2.20;98.00;;;;;;5071619;28;21020;-65
2021/01/03 08:03:02;;;;;;;1.13;1.03;;;2.00;98.00;;;;;;5070518;28;20457;-66
2021/01/03 08:05:30;;;;;;;1.40;1.13;;;1.80;98.00;;;;;;5078085;28;20467;-64
2021/01/03 08:08:06;;;;;;;1.10;0.90;;;1.80;98.00;;;;;;5076008;28;20452;-64
2021/01/03 08:10:34;;;;;;;1.10;0.90;;;1.80;98.00;;;;;;5077961;28;21023;-66
2021/01/03 08:13:09;;;;;;;1.33;1.20;;;1.70;98.00;;;;;;5076164;28;20457;-66
2021/01/03 08:15:37;;;;;;;1.10;1.00;;;1.70;98.00;;;;;;5078021;28;20531;-66
2021/01/03 08:18:08;;;;;;;1.20;1.10;;;1.70;98.00;;;;;;5075881;28;20470;-65
2021/01/03 08:20:34;;;;;;;2.70;1.40;;;1.70;98.00;;;;;;5077745;28;20459;-66
2021/01/03 08:23:16;;;;;;;1.50;1.30;;;1.70;98.00;;;;;;5075879;28;20459;-65
2021/01/03 08:25:43;;;;;;;1.30;1.20;;;1.80;98.00;;;;;;5077872;28;20490;-66
2021/01/03 08:28:18;;;;;;;1.10;1.00;;;1.80;98.00;;;;;;5075906;28;20599;-66
2021/01/03 08:30:46;;;;;;;1.23;1.20;;;1.90;98.00;;;;;;5077648;28;21066;-66
2021/01/03 08:33:18;;;;;;;1.50;1.40;;;2.00;98.00;;;;;;5075730;28;20483;-67
2021/01/03 08:35:44;;;;;;;1.10;1.00;;;2.10;98.00;;;;;;5077717;28;20456;-66
2021/01/03 08:38:11;;;;;;;1.73;1.30;;;2.10;98.00;;;;;;5075878;28;20504;-65
2021/01/03 08:40:42;;;;;;;1.77;1.63;;;2.30;98.00;;;;;;5077607;28;20456;-66
2021/01/03 08:43:13;;;;;;;1.10;1.00;;;2.30;98.00;;;;;;5075410;28;20459;-66
2021/01/03 08:45:42;;;;;;;3.37;2.33;;;2.20;98.00;;;;;;5077537;28;20823;-67
2021/01/03 08:48:12;;;;;;;1.10;1.10;;;2.20;98.00;;;;;;5075581;28;20505;-66
2021/01/03 08:50:41;;;;;;;1.10;1.00;;;2.30;98.00;;;;;;5077390;28;20483;-66
2021/01/03 08:53:10;;;;;;;1.40;1.27;;;2.40;98.00;;;;;;5074268;28;20958;-65
2021/01/03 08:55:39;;;;;;;1.10;1.03;;;2.30;98.00;;;;;;5076551;28;20550;-65
2021/01/03 08:58:09;;;;;;;1.10;1.10;;;2.30;98.00;;;;;;5074716;28;20476;-65
2021/01/03 09:00:45;;;;;;;1.20;1.20;;;2.30;98.00;;;;;;5076795;28;20465;-65
2021/01/03 09:03:17;;;;;;;1.30;1.27;;;2.40;98.00;;;;;;5074957;28;20455;-65
2021/01/03 09:05:47;;;;;;;2.33;1.40;;;2.40;98.00;;;;;;5076566;28;20456;-66
2021/01/03 09:08:24;;;;;;;1.30;1.27;;;2.50;98.00;;;;;;5074495;28;20459;-66
2021/01/03 09:10:52;;;;;;;1.10;1.00;;;2.50;98.00;;;;;;5076776;28;20547;-66
2021/01/03 09:13:26;;;;;;;3.33;2.50;;;2.40;98.00;;;;;;5073271;28;20962;-66
2021/01/03 09:16:14;;;;;;;1.73;1.60;;;2.40;98.00;;;;;;5073755;28;20935;-66
2021/01/03 09:18:55;;;;;;;2.73;1.53;;;2.30;98.00;;;;;;5071538;28;20946;-66
2021/01/03 09:21:22;;;;;;;1.20;1.20;;;2.30;98.00;;;;;;5073624;28;20460;-66
2021/01/03 09:24:00;;;;;;;1.10;1.00;;;2.30;98.00;;;;;;5071457;28;20463;-66
2021/01/03 09:26:34;;;;;;;1.20;1.00;;;2.40;98.00;;;;;;5073319;28;20463;-66
2021/01/03 09:29:31;;;;;;;1.80;1.70;;;2.50;98.00;;;;;;5071230;28;20456;-66
2021/01/03 09:32:03;;;;;;;2.17;1.60;;;2.40;98.00;;;;;;5073281;28;20983;-66
2021/01/03 09:34:48;;;;;;;1.27;1.17;;;2.30;98.00;;;;;;5070918;28;20463;-66
2021/01/03 09:37:24;;;;;;;1.10;1.00;;;2.50;98.00;;;;;;5073317;28;20463;-65
2021/01/03 09:40:11;;;;;;;1.70;1.53;;;2.50;98.00;;;;;;5070970;28;20941;-66
2021/01/03 09:42:43;;;;;;;2.80;1.57;;;2.60;98.00;;;;;;5072871;28;20460;-66
2021/01/03 09:45:32;;;;;;;1.10;1.00;;;2.70;98.00;;;;;;5070057;28;20954;-65
2021/01/03 09:47:59;;;;;;;1.40;1.30;;;2.70;98.00;;;;;;5071408;28;20493;-66
2021/01/03 09:50:32;;;;;;;1.20;1.10;;;2.60;98.00;;;;;;5072840;28;20515;-66
2021/01/03 09:53:10;;;;;;;1.20;1.10;;;2.50;98.00;;;;;;5072640;28;20468;-65
2021/01/03 09:55:45;;;;;;;1.90;1.80;;;2.40;98.00;;;;;;5070802;28;20958;-66
2021/01/03 09:58:18;;;;;;;1.37;1.00;;;2.30;98.00;;;;;;5070648;28;20570;-66
2021/01/03 10:00:50;;;;;;;1.37;1.20;;;2.50;98.00;;;;;;5071578;28;20853;-64
2021/01/03 10:03:37;;;;;;;1.40;1.30;;;2.60;98.00;;;;;;5070524;28;20464;-65
2021/01/03 10:06:19;;;;;;;1.27;1.20;;;2.70;98.00;;;;;;5072353;28;20455;-65
2021/01/03 10:08:46;;;;;;;3.00;1.50;;;2.60;98.00;;;;;;5070355;28;20482;-65
2021/01/03 10:11:29;;;;;;;1.13;1.13;;;2.70;98.00;;;;;;5072727;28;20951;-64
2021/01/03 10:13:58;;;;;;;1.13;1.10;;;2.60;98.00;;;;;;5070250;28;20459;-65
2021/01/03 10:16:27;;;;;;;1.30;1.10;;;2.50;98.00;;;;;;5070908;28;20942;-65
2021/01/03 10:18:54;;;;;;;1.30;1.10;;;2.40;98.00;;;;;;5070870;28;20509;-66
2021/01/03 10:21:33;;;;;;;1.20;1.10;;;2.20;98.00;;;;;;5072521;28;20456;-66
2021/01/03 10:24:01;;;;;;;1.10;1.00;;;2.30;98.00;;;;;;5069930;28;20473;-65
2021/01/03 10:26:31;;;;;;;3.00;1.77;;;2.30;98.00;;;;;;5071166;28;20456;-65
2021/01/03 10:28:57;;;;;;;1.30;1.10;;;2.30;98.00;;;;;;5070289;28;20464;-67
2021/01/03 10:31:25;;;;;;;1.10;1.10;;;2.20;98.00;;;;;;5071973;28;20490;-65
2021/01/03 10:33:51;;;;;;;1.10;1.00;;;2.20;98.00;;;;;;5070102;28;20489;-66
2021/01/03 10:36:19;;;;;;;1.57;1.40;;;2.10;98.00;;;;;;5071499;28;20947;-66
2021/01/03 10:38:47;;;;;;;2.03;1.67;;;2.20;98.00;;;;;;5070104;28;20460;-67
2021/01/03 10:41:14;;;;;;;1.13;1.10;;;2.20;98.00;;;;;;5071841;28;20461;-66
2021/01/03 10:43:40;;;;;;;1.80;1.40;;;2.30;98.00;;;;;;5069905;28;20804;-66
2021/01/03 10:46:07;;;;;;;1.17;1.10;;;2.40;98.00;;;;;;5071765;28;20869;-68
2021/01/03 10:48:33;;;;;;;1.87;1.20;;;2.30;98.00;;;;;;5068606;28;20451;-67
2021/01/03 10:51:00;;;;;;;1.77;1.73;;;2.30;98.00;;;;;;5071807;28;20483;-66
2021/01/03 10:53:27;;;;;;;1.17;1.13;;;2.30;98.00;;;;;;5069725;28;20521;-66
2021/01/03 10:55:54;;;;;;;1.77;1.67;;;2.30;98.00;;;;;;5071443;28;20550;-66
2021/01/03 10:58:20;;;;;;;1.73;1.53;;;2.30;98.00;;;;;;5069073;28;20472;-67
2021/01/03 11:00:47;;;;;;;1.43;1.33;;;2.30;98.00;;;;;;5071572;28;20513;-67
2021/01/03 11:03:14;;;;;;;1.20;1.00;;;2.30;98.00;;;;;;5069398;28;20503;-67
2021/01/03 11:05:40;;;;;;;1.70;1.60;;;2.30;98.00;;;;;;5071162;28;20455;-66
2021/01/03 11:08:07;;;;;;;1.40;1.30;;;2.40;98.00;;;;;;5070438;28;20463;-67
2021/01/03 11:10:36;;;;;;;2.33;1.43;;;2.40;98.00;;;;;;5070556;28;20480;-66
2021/01/03 11:13:03;;;;;;;1.70;1.27;;;2.60;98.00;;;;;;5070407;28;20455;-66
2021/01/03 11:15:30;;;;;;;3.60;2.37;;;2.60;98.00;;;;;;5069026;28;20535;-67
2021/01/03 11:17:56;;;;;;;3.10;2.13;;;2.80;98.00;;;;;;5071408;28;20463;-67
2021/01/03 11:20:23;;;;;;;1.20;1.00;;;2.90;98.00;;;;;;5069369;28;20488;-66
2021/01/03 11:22:50;;;;;;;1.20;1.10;;;3.00;98.00;;;;;;5069884;28;20457;-67
2021/01/03 11:25:17;;;;;;;1.20;1.13;;;3.00;98.00;;;;;;5068898;28;20452;-67
2021/01/03 11:27:44;;;;;;;1.20;1.10;;;3.10;98.00;;;;;;5071041;28;20468;-67
2021/01/03 11:30:13;;;;;;;1.37;1.33;;;3.10;98.00;;;;;;5069285;28;20475;-66
2021/01/03 11:32:42;;;;;;;2.23;1.47;;;3.00;98.00;;;;;;5071023;28;20487;-66
2021/01/03 11:35:12;;;;;;;1.30;1.17;;;3.10;98.00;;;;;;5068230;28;20518;-66
2021/01/03 11:37:38;;;;;;;1.57;1.40;;;3.30;98.00;;;;;;5070931;28;20514;-66
2021/01/03 11:40:06;;;;;;;1.53;1.27;;;3.50;98.00;;;;;;5069694;28;20469;-66
2021/01/03 11:42:36;;;;;;;1.90;1.40;;;3.60;98.00;;;;;;5070726;28;20461;-66
2021/01/03 11:45:04;;;;;;;1.30;1.20;;;3.60;98.00;;;;;;5068960;28;20517;-67
2021/01/03 11:47:32;;;;;;;1.40;1.40;;;3.50;98.00;;;;;;5071377;28;20444;-66
2021/01/03 11:49:58;;;;;;;1.67;1.33;;;3.30;98.00;;;;;;5070059;28;20867;-67
2021/01/03 11:52:26;;;;;;;1.60;1.60;;;3.00;98.00;;;;;;5071166;28;20557;-66
2021/01/03 11:54:52;;;;;;;1.33;1.30;;;3.00;98.00;;;;;;5069321;28;20505;-67
2021/01/03 11:57:19;;;;;;;2.57;2.07;;;2.90;98.00;;;;;;5072007;28;20459;-66
2021/01/03 11:59:46;;;;;;;1.20;1.00;;;2.70;98.00;;;;;;5068944;28;20463;-66
2021/01/03 12:02:12;;;;;;;1.20;1.00;;;2.60;98.00;;;;;;5071066;28;20467;-66
2021/01/03 12:04:40;;;;;;;1.20;1.20;;;2.70;98.00;;;;;;5068580;28;20530;-67
2021/01/03 12:07:10;;;;;;;1.10;1.00;;;2.90;98.00;;;;;;5070849;28;20494;-67
2021/01/03 12:09:38;;;;;;;4.27;1.97;;;2.90;98.00;;;;;;5068769;28;20460;-67
2021/01/03 12:12:08;;;;;;;3.50;1.83;;;2.80;98.00;;;;;;5070572;28;20486;-67
2021/01/03 12:14:35;;;;;;;1.50;1.27;;;2.70;98.00;;;;;;5067381;28;20446;-67
2021/01/03 12:17:03;;;;;;;1.40;1.23;;;2.70;98.00;;;;;;5070655;28;20462;-67
2021/01/03 12:19:30;;;;;;;1.10;0.90;;;2.60;98.00;;;;;;5068589;28;20464;-67
2021/01/03 12:21:59;;;;;;;1.20;1.00;;;2.60;98.00;;;;;;5070826;28;20893;-66
2021/01/03 12:24:26;;;;;;;1.13;1.07;;;2.60;98.00;;;;;;5068612;28;20957;-68
2021/01/03 12:26:53;;;;;;;1.80;1.50;;;2.60;98.00;;;;;;5070638;28;20505;-67
2021/01/03 12:29:20;;;;;;;1.20;1.00;;;2.60;98.00;;;;;;5067228;28;20457;-66
2021/01/03 12:31:49;;;;;;;1.97;1.73;;;2.70;98.00;;;;;;5070491;28;20850;-69
2021/01/03 12:34:18;;;;;;;2.43;1.53;;;2.80;98.00;;;;;;5068719;28;20939;-67
2021/01/03 12:36:44;;;;;;;3.30;1.77;;;2.70;98.00;;;;;;5070475;28;20463;-67
2021/01/03 12:39:13;;;;;;;4.07;2.30;;;2.70;98.00;;;;;;5068356;28;20510;-67
2021/01/03 12:41:40;;;;;;;1.50;1.43;;;2.60;98.00;;;;;;5070630;28;20953;-69
2021/01/03 12:44:09;;;;;;;1.50;1.50;;;2.50;98.00;;;;;;5067118;28;20541;-67
2021/01/03 12:46:39;;;;;;;3.00;1.57;;;2.50;98.00;;;;;;5070227;28;20464;-66
2021/01/03 12:49:07;;;;;;;1.33;1.30;;;2.40;98.00;;;;;;5068514;28;20456;-67
2021/01/03 12:51:33;;;;;;;1.10;1.00;;;2.40;98.00;;;;;;5073452;28;20487;-66
2021/01/03 12:54:00;;;;;;;1.93;1.63;;;2.40;98.00;;;;;;5072425;28;20468;-66
2021/01/03 12:56:29;;;;;;;2.00;1.90;;;2.50;98.00;;;;;;5074280;28;20464;-66
2021/01/03 12:58:58;;;;;;;2.97;1.83;;;2.70;98.00;;;;;;5071866;28;20463;-66
2021/01/03 13:01:28;;;;;;;6.33;1.60;;;2.70;98.00;;;;;;5074309;28;20459;-68
2021/01/03 13:03:55;;;;;;;1.50;1.30;;;2.80;98.00;;;;;;5072432;28;20788;-67
2021/01/03 13:06:22;;;;;;;1.73;1.60;;;2.90;98.00;;;;;;5074145;28;20878;-67
2021/01/03 13:08:48;;;;;;;1.20;1.10;;;3.00;98.00;;;;;;5072526;28;20513;-65
2021/01/03 13:11:17;;;;;;;1.13;1.00;;;3.00;98.00;;;;;;5074410;28;20490;-67
2021/01/03 13:13:45;;;;;;;1.87;1.40;;;3.10;98.00;;;;;;5072546;28;20468;-67
2021/01/03 13:16:12;;;;;;;1.50;1.40;;;3.10;98.00;;;;;;5074601;28;20467;-67
2021/01/03 13:18:38;;;;;;;1.30;1.20;;;3.10;98.00;;;;;;5072363;28;20460;-67
2021/01/03 13:21:06;;;;;;;1.53;1.30;;;3.00;98.00;;;;;;5074328;28;20842;-66